createdAt,value
2022-12-17T00:01:22.345Z,15.32
2022-12-17T00:04:07.373Z,13.90
2022-12-17T00:06:52.015Z,13.70
2022-12-17T00:09:36.761Z,14.18
2022-12-17T00:12:21.881Z,14.18
2022-12-17T00:15:06.924Z,10.98
2022-12-17T00:17:51.704Z,11.43
2022-12-17T00:20:36.856Z,10.82
2022-12-17T00:23:23.168Z,10.13
2022-12-17T00:26:12.620Z,10.23
2022-12-17T00:28:57.872Z,8.70
2022-12-17T00:31:45.212Z,9.30
2022-12-17T00:34:30.080Z,10.07
2022-12-17T00:37:17.036Z,9.20
2022-12-17T00:40:02.216Z,8.90
2022-12-17T00:42:47.356Z,9.98
2022-12-17T00:45:32.410Z,10.20
2022-12-17T00:48:17.160Z,9.68
2022-12-17T00:51:01.919Z,10.15
2022-12-17T00:53:46.615Z,10.15
2022-12-17T00:56:31.363Z,11.32
2022-12-17T00:59:16.436Z,10.45
2022-12-17T01:02:01.658Z,9.88
2022-12-17T01:04:46.695Z,9.65
2022-12-17T01:07:31.305Z,9.25
2022-12-17T01:10:16.144Z,9.00
2022-12-17T01:13:01.242Z,9.23
2022-12-17T01:15:47.049Z,8.55
2022-12-17T01:18:37.310Z,8.98
2022-12-17T01:21:22.604Z,8.13
2022-12-17T01:24:07.696Z,9.20
2022-12-17T01:26:54.083Z,7.45
2022-12-17T01:29:41.202Z,8.63
2022-12-17T01:32:25.822Z,8.50
2022-12-17T01:35:10.858Z,8.18
2022-12-17T01:37:55.608Z,8.80
2022-12-17T01:40:40.827Z,7.47
2022-12-17T01:43:30.310Z,8.15
2022-12-17T01:46:16.143Z,8.10
2022-12-17T01:49:03.854Z,8.52
2022-12-17T01:51:49.302Z,7.88
2022-12-17T01:54:34.952Z,8.65
2022-12-17T01:57:21.077Z,7.90
2022-12-17T02:00:14.709Z,8.02
2022-12-17T02:03:00.536Z,8.68
2022-12-17T02:05:52.050Z,7.10
2022-12-17T02:08:49.089Z,7.60
2022-12-17T02:11:48.471Z,7.38
2022-12-17T02:14:47.474Z,7.60
2022-12-17T02:17:36.493Z,7.15
2022-12-17T02:20:42.805Z,6.97
2022-12-17T02:23:33.006Z,7.65
2022-12-17T02:26:21.622Z,6.95
2022-12-17T02:29:10.119Z,7.03
2022-12-17T02:31:57.836Z,7.70
2022-12-17T02:34:43.008Z,8.05
2022-12-17T02:37:27.769Z,7.13
2022-12-17T02:40:12.814Z,6.43
2022-12-17T02:42:57.682Z,6.43
2022-12-17T02:45:43.238Z,6.25
2022-12-17T02:48:28.527Z,6.78
2022-12-17T02:51:15.483Z,6.38
2022-12-17T02:54:04.742Z,6.93
2022-12-17T02:56:49.412Z,6.93
2022-12-17T02:59:34.627Z,6.82
2022-12-17T03:02:19.589Z,6.03
2022-12-17T03:05:21.466Z,6.65
2022-12-17T03:08:09.515Z,6.75
2022-12-17T03:10:54.250Z,6.93
2022-12-17T03:13:45.898Z,6.88
2022-12-17T03:16:37.488Z,6.53
2022-12-17T03:19:23.233Z,5.82
2022-12-17T03:22:08.207Z,6.40
2022-12-17T03:24:53.179Z,6.95
2022-12-17T03:27:51.740Z,6.85
2022-12-17T03:30:38.591Z,6.88
2022-12-17T03:33:27.125Z,6.70
2022-12-17T03:36:12.917Z,6.15
2022-12-17T03:38:57.949Z,5.88
2022-12-17T03:41:42.700Z,6.25
2022-12-17T03:44:27.485Z,6.40
2022-12-17T03:47:12.295Z,7.80
2022-12-17T03:49:57.080Z,7.18
2022-12-17T03:52:42.098Z,6.40
2022-12-17T03:55:27.306Z,6.22
2022-12-17T03:58:12.108Z,5.68
2022-12-17T04:00:56.809Z,6.30
2022-12-17T04:03:41.758Z,5.97
2022-12-17T04:06:28.393Z,7.05
2022-12-17T04:09:13.528Z,6.60
2022-12-17T04:11:59.122Z,6.57
2022-12-17T04:14:43.962Z,6.55
2022-12-17T04:17:28.860Z,5.90
2022-12-17T04:20:13.662Z,6.35
2022-12-17T04:22:58.433Z,6.35
2022-12-17T04:25:43.331Z,5.82
2022-12-17T04:28:28.365Z,6.55
2022-12-17T04:31:13.662Z,6.82
2022-12-17T04:33:58.408Z,6.75
2022-12-17T04:36:43.287Z,6.45
2022-12-17T04:39:28.309Z,6.35
2022-12-17T04:42:13.294Z,6.10
2022-12-17T04:44:58.288Z,6.68
2022-12-17T04:47:43.714Z,6.70
2022-12-17T04:50:28.373Z,5.85
2022-12-17T04:53:23.956Z,6.47
2022-12-17T04:56:09.408Z,6.68
2022-12-17T04:58:54.554Z,5.80
2022-12-17T05:01:39.578Z,6.68
2022-12-17T05:04:24.562Z,6.28
2022-12-17T05:07:09.309Z,6.68
2022-12-17T05:10:01.750Z,6.15
2022-12-17T05:12:54.062Z,6.20
2022-12-17T05:15:39.203Z,5.38
2022-12-17T05:18:26.026Z,5.55
2022-12-17T05:21:11.333Z,6.05
2022-12-17T05:23:56.712Z,5.70
2022-12-17T05:26:46.350Z,5.82
2022-12-17T05:29:31.572Z,6.40
2022-12-17T05:32:17.125Z,5.57
2022-12-17T05:35:02.079Z,5.68
2022-12-17T05:37:46.997Z,5.32
2022-12-17T05:40:31.873Z,5.82
2022-12-17T05:43:21.906Z,6.15
2022-12-17T05:46:07.133Z,6.13
2022-12-17T05:48:53.209Z,6.07
2022-12-17T05:51:39.039Z,6.60
2022-12-17T05:54:24.991Z,6.47
2022-12-17T05:57:10.584Z,6.00
2022-12-17T05:59:55.524Z,7.22
2022-12-17T06:02:41.024Z,8.10
2022-12-17T06:05:28.284Z,8.00
2022-12-17T06:08:23.932Z,7.60
2022-12-17T06:11:08.586Z,7.32
2022-12-17T06:13:53.496Z,7.93
2022-12-17T06:16:39.165Z,8.60
2022-12-17T06:19:24.286Z,8.40
2022-12-17T06:22:09.243Z,7.95
2022-12-17T06:24:54.021Z,8.27
2022-12-17T06:27:38.870Z,9.85
2022-12-17T06:30:24.089Z,8.57
2022-12-17T06:33:08.861Z,7.30
2022-12-17T06:35:53.448Z,8.88
2022-12-17T06:38:38.715Z,8.82
2022-12-17T06:41:23.403Z,8.40
2022-12-17T06:44:08.774Z,8.90
2022-12-17T06:46:53.565Z,9.65
2022-12-17T06:49:48.874Z,9.40
2022-12-17T06:52:33.621Z,9.77
2022-12-17T06:55:18.789Z,8.90
2022-12-17T06:58:03.761Z,9.38
2022-12-17T07:00:48.676Z,9.23
2022-12-17T07:03:33.786Z,10.32
2022-12-17T07:06:22.738Z,9.85
2022-12-17T07:09:07.990Z,9.85
2022-12-17T07:11:53.085Z,10.32
2022-12-17T07:14:37.837Z,9.43
2022-12-17T07:17:22.574Z,8.82
2022-12-17T07:20:07.809Z,6.90
2022-12-17T07:22:52.970Z,14.82
2022-12-17T07:25:40.512Z,19.73
2022-12-17T07:28:29.241Z,17.05
2022-12-17T07:31:15.102Z,15.38
2022-12-17T07:34:00.074Z,14.57
2022-12-17T07:36:44.781Z,13.18
2022-12-17T07:39:29.923Z,14.63
2022-12-17T07:42:14.600Z,16.52
2022-12-17T07:44:59.357Z,14.20
2022-12-17T07:47:44.210Z,15.07
2022-12-17T07:50:29.015Z,14.98
2022-12-17T07:53:21.183Z,15.23
2022-12-17T07:56:05.916Z,16.20
2022-12-17T07:58:50.943Z,17.55
2022-12-17T08:01:43.328Z,17.35
2022-12-17T08:04:28.284Z,18.73
2022-12-17T08:07:14.251Z,17.25
2022-12-17T08:10:01.144Z,20.42
2022-12-17T08:12:46.135Z,20.55
2022-12-17T08:15:31.140Z,19.50
2022-12-17T08:18:26.376Z,21.58
2022-12-17T08:21:12.446Z,20.45
2022-12-17T08:23:57.307Z,22.58
2022-12-17T08:26:47.592Z,20.35
2022-12-17T08:29:32.665Z,21.23
2022-12-17T08:32:17.473Z,20.42
2022-12-17T08:35:02.683Z,20.30
2022-12-17T08:37:49.120Z,20.45
2022-12-17T08:40:34.337Z,21.50
2022-12-17T08:43:19.173Z,20.95
2022-12-17T08:46:06.230Z,21.20
2022-12-17T08:48:51.029Z,22.17
2022-12-17T08:51:36.041Z,20.35
2022-12-17T08:54:21.020Z,21.38
2022-12-17T08:57:06.083Z,19.70
2022-12-17T08:59:50.810Z,19.48
2022-12-17T09:02:35.949Z,19.83
2022-12-17T09:05:20.997Z,20.30
2022-12-17T09:08:06.250Z,17.85
2022-12-17T09:10:50.921Z,22.50
2022-12-17T09:13:43.207Z,19.90
2022-12-17T09:16:28.169Z,22.13
2022-12-17T09:19:13.057Z,23.10
2022-12-17T09:21:58.140Z,23.05
2022-12-17T09:24:43.085Z,22.58
2022-12-17T09:27:27.781Z,22.00
2022-12-17T09:30:12.853Z,24.58
2022-12-17T09:32:57.961Z,25.70
2022-12-17T09:35:42.895Z,31.23
2022-12-17T09:38:30.613Z,31.15
2022-12-17T09:41:20.584Z,31.45
2022-12-17T09:44:15.683Z,31.98
2022-12-17T09:47:13.351Z,30.85
2022-12-17T09:49:58.323Z,27.35
2022-12-17T09:52:50.199Z,24.50
2022-12-17T09:55:47.429Z,23.00
2022-12-17T09:58:54.123Z,22.17
2022-12-17T10:01:50.134Z,23.02
2022-12-17T10:04:53.715Z,21.10
2022-12-17T10:07:44.257Z,18.95
2022-12-17T10:10:41.166Z,17.02
2022-12-17T10:13:34.680Z,17.95
2022-12-17T10:16:20.170Z,17.20
2022-12-17T10:19:05.513Z,18.40
2022-12-17T10:21:50.471Z,17.58
2022-12-17T10:24:35.188Z,19.00
2022-12-17T10:27:27.933Z,18.52
2022-12-17T10:30:12.608Z,19.35
2022-12-17T10:32:57.606Z,17.90
2022-12-17T10:35:44.828Z,17.85
2022-12-17T10:38:47.496Z,19.15
2022-12-17T10:41:46.276Z,18.30
2022-12-17T10:44:47.396Z,17.85
2022-12-17T10:47:42.283Z,16.50
2022-12-17T10:50:39.440Z,16.10
2022-12-17T10:53:37.055Z,18.55
2022-12-17T10:56:22.454Z,16.48
2022-12-17T10:59:09.941Z,17.30
2022-12-17T11:01:56.117Z,17.67
2022-12-17T11:04:45.607Z,18.15
2022-12-17T11:07:44.728Z,17.92
2022-12-17T11:10:38.970Z,17.55
2022-12-17T11:16:12.711Z,17.65
2022-12-17T11:18:57.463Z,17.27
2022-12-17T11:21:49.981Z,18.60
2022-12-17T11:24:47.038Z,15.43
2022-12-17T11:27:37.924Z,17.95
2022-12-17T11:30:33.150Z,18.30
2022-12-17T11:33:26.119Z,19.42
2022-12-17T11:36:17.409Z,19.63
2022-12-17T11:39:24.209Z,18.92
2022-12-17T11:42:18.864Z,18.73
2022-12-17T11:45:13.128Z,19.30
2022-12-17T11:48:03.901Z,19.55
2022-12-17T11:51:03.230Z,20.92
2022-12-17T11:54:05.894Z,20.90
2022-12-17T11:56:58.504Z,21.13
2022-12-17T11:59:54.218Z,20.23
2022-12-17T12:03:14.485Z,23.08
2022-12-17T12:06:12.645Z,21.95
2022-12-17T12:09:22.715Z,21.65
2022-12-17T12:12:30.355Z,20.73
2022-12-17T12:15:44.667Z,22.95
2022-12-17T12:18:40.297Z,21.83
2022-12-17T12:21:31.724Z,22.50
2022-12-17T12:24:53.733Z,21.85
2022-12-17T12:27:57.237Z,21.05
2022-12-17T12:30:43.801Z,22.08
2022-12-17T12:34:09.628Z,22.95
2022-12-17T12:36:56.216Z,21.30
2022-12-17T12:39:50.001Z,22.90
2022-12-17T12:43:01.658Z,21.83
2022-12-17T12:46:13.243Z,21.38
2022-12-17T12:49:13.596Z,20.67
2022-12-17T12:51:58.621Z,20.05
2022-12-17T12:54:49.275Z,19.90
2022-12-17T12:57:54.702Z,19.88
2022-12-17T13:00:44.285Z,20.10
2022-12-17T13:03:48.752Z,21.15
2022-12-17T13:09:14.693Z,20.88
2022-12-17T13:11:43.267Z,19.70
2022-12-17T13:14:20.197Z,20.67
2022-12-17T13:16:46.517Z,20.17
2022-12-17T13:19:31.249Z,20.35
2022-12-17T13:22:20.260Z,22.35
2022-12-17T13:24:50.968Z,20.70
2022-12-17T13:27:39.133Z,22.13
2022-12-17T13:30:17.786Z,21.27
2022-12-17T13:33:02.397Z,21.42
2022-12-17T13:35:54.183Z,21.55
2022-12-17T13:38:28.067Z,21.33
2022-12-17T13:41:10.203Z,21.23
2022-12-17T13:43:49.022Z,21.13
2022-12-17T13:46:23.975Z,21.95
2022-12-17T13:49:29.848Z,23.05
2022-12-17T13:52:18.029Z,23.88
2022-12-17T13:54:44.787Z,22.55
2022-12-17T13:57:17.137Z,22.70
2022-12-17T13:59:54.723Z,25.63
2022-12-17T14:02:26.360Z,23.77
2022-12-17T14:04:54.004Z,25.35
2022-12-17T14:07:21.080Z,23.90
2022-12-17T14:09:48.162Z,22.55
2022-12-17T14:12:25.232Z,24.05
2022-12-17T14:14:57.039Z,24.60
2022-12-17T14:17:36.576Z,26.67
2022-12-17T14:20:29.199Z,25.45
2022-12-17T14:23:00.611Z,25.30
2022-12-17T14:25:35.577Z,24.58
2022-12-17T14:28:19.085Z,27.48
2022-12-17T14:31:24.342Z,26.25
2022-12-17T14:33:34.334Z,25.95
2022-12-17T14:36:04.032Z,26.08
2022-12-17T14:38:38.337Z,27.25
2022-12-17T14:41:30.078Z,26.08
2022-12-17T14:43:58.622Z,24.60
2022-12-17T14:46:25.367Z,24.35
2022-12-17T14:49:02.209Z,21.77
2022-12-17T14:51:36.806Z,22.88
2022-12-17T14:54:28.918Z,25.17
2022-12-17T14:56:57.558Z,23.67
2022-12-17T14:59:32.857Z,21.48
2022-12-17T15:02:08.563Z,20.85
2022-12-17T15:04:37.638Z,19.88
2022-12-17T15:07:04.285Z,23.52
2022-12-17T15:09:30.640Z,23.00
2022-12-17T15:12:00.217Z,25.08
2022-12-17T15:14:26.576Z,25.77
2022-12-17T15:16:52.969Z,26.65
2022-12-17T15:19:19.362Z,23.42
2022-12-17T15:21:45.717Z,23.20
2022-12-17T15:24:19.248Z,29.10
2022-12-17T15:26:45.976Z,33.30
2022-12-17T15:29:12.576Z,35.97
2022-12-17T15:31:39.251Z,35.33
2022-12-17T15:34:05.797Z,31.00
2022-12-17T15:36:32.673Z,27.98
2022-12-17T15:38:59.235Z,25.42
2022-12-17T15:41:44.641Z,22.73
2022-12-17T15:44:11.075Z,21.52
2022-12-17T15:46:37.552Z,21.60
2022-12-17T15:49:03.908Z,21.25
2022-12-17T15:51:30.306Z,21.70
2022-12-17T15:53:56.987Z,22.70
2022-12-17T15:56:25.295Z,21.25
2022-12-17T15:58:51.969Z,21.30
2022-12-17T16:01:18.907Z,21.02
2022-12-17T16:03:45.680Z,23.00
2022-12-17T16:06:12.065Z,22.85
2022-12-17T16:08:40.146Z,22.55
2022-12-17T16:11:11.263Z,22.38
2022-12-17T16:13:38.128Z,22.60
2022-12-17T16:16:05.924Z,23.88
2022-12-17T16:18:32.601Z,23.70
2022-12-17T16:21:06.506Z,23.80
2022-12-17T16:23:33.208Z,24.10
2022-12-17T16:26:01.434Z,23.40
2022-12-17T16:28:28.266Z,24.67
2022-12-17T16:31:02.517Z,22.95
2022-12-17T16:33:36.288Z,24.25
2022-12-17T16:36:03.384Z,23.75
2022-12-17T16:38:30.069Z,24.02
2022-12-17T16:41:01.120Z,24.95
2022-12-17T16:43:28.481Z,26.33
2022-12-17T16:45:55.091Z,25.67
2022-12-17T16:48:22.033Z,24.13
2022-12-17T16:50:48.950Z,26.00
2022-12-17T16:53:15.816Z,24.65
2022-12-17T16:55:44.881Z,25.48
2022-12-17T16:58:11.793Z,25.42
2022-12-17T17:00:38.198Z,27.80
2022-12-17T17:03:06.053Z,25.38
2022-12-17T17:05:33.997Z,29.13
2022-12-17T17:08:00.535Z,25.55
2022-12-17T17:10:27.575Z,25.23
2022-12-17T17:12:54.588Z,24.67
2022-12-17T17:15:22.288Z,25.88
2022-12-17T17:17:54.551Z,28.23
2022-12-17T17:20:24.232Z,28.15
2022-12-17T17:22:50.567Z,27.02
2022-12-17T17:25:16.950Z,27.85
2022-12-17T17:27:43.306Z,29.17
2022-12-17T17:30:10.274Z,28.33
2022-12-17T17:32:36.960Z,28.23
2022-12-17T17:35:03.888Z,28.98
2022-12-17T17:37:30.205Z,28.48
2022-12-17T17:39:56.504Z,29.17
2022-12-17T17:42:22.917Z,29.63
2022-12-17T17:44:49.366Z,30.23
2022-12-17T17:47:15.987Z,29.33
2022-12-17T17:49:44.297Z,27.77
2022-12-17T17:52:11.610Z,28.23
2022-12-17T17:54:42.295Z,28.52
2022-12-17T17:57:09.821Z,25.83
2022-12-17T17:59:36.273Z,24.95
2022-12-17T18:02:03.428Z,26.55
2022-12-17T18:04:30.816Z,27.80
2022-12-17T18:09:43.815Z,26.63
2022-12-17T18:12:28.457Z,26.58
2022-12-17T18:17:41.452Z,27.75
2022-12-17T18:20:09.482Z,28.75
2022-12-17T18:22:35.958Z,24.50
2022-12-17T18:25:02.324Z,27.27
2022-12-17T18:27:28.731Z,27.85
2022-12-17T18:29:55.111Z,29.50
2022-12-17T18:32:21.447Z,29.45
2022-12-17T18:34:47.955Z,28.10
2022-12-17T18:37:14.319Z,29.63
2022-12-17T18:39:40.938Z,27.83
2022-12-17T18:42:27.168Z,26.50
2022-12-17T18:44:53.679Z,26.98
2022-12-17T18:47:20.124Z,29.88
2022-12-17T18:49:46.627Z,27.17
2022-12-17T18:52:16.678Z,29.83
2022-12-17T18:54:43.461Z,28.52
2022-12-17T18:57:09.887Z,30.77
2022-12-17T18:59:36.199Z,29.38
2022-12-17T19:02:04.495Z,29.52
2022-12-17T19:04:32.726Z,30.27
2022-12-17T19:06:59.151Z,29.13
2022-12-17T19:09:28.889Z,29.17
2022-12-17T19:11:56.215Z,29.50
2022-12-17T19:14:23.236Z,30.17
2022-12-17T19:16:51.082Z,28.30
2022-12-17T19:19:18.257Z,28.75
2022-12-17T19:21:44.794Z,29.17
2022-12-17T19:24:16.028Z,27.85
2022-12-17T19:26:42.781Z,28.58
2022-12-17T19:29:11.498Z,27.92
2022-12-17T19:31:38.271Z,29.92
2022-12-17T19:34:06.291Z,27.38
2022-12-17T19:36:34.499Z,28.67
2022-12-17T19:39:04.233Z,28.23
2022-12-17T19:41:32.727Z,28.60
2022-12-17T19:44:03.754Z,30.73
2022-12-17T19:46:31.400Z,30.80
2022-12-17T19:48:57.921Z,30.20
2022-12-17T19:51:27.353Z,28.77
2022-12-17T19:53:54.596Z,30.10
2022-12-17T19:56:30.819Z,28.73
2022-12-17T19:59:02.052Z,28.92
2022-12-17T20:01:32.762Z,32.17
2022-12-17T20:03:59.540Z,31.65
2022-12-17T20:06:31.101Z,31.77
2022-12-17T20:08:58.430Z,31.15
2022-12-17T20:11:34.288Z,32.38
2022-12-17T20:14:22.003Z,32.67
2022-12-17T20:16:50.689Z,32.50
2022-12-17T20:19:22.065Z,30.60
2022-12-17T20:21:48.914Z,30.90
2022-12-17T20:24:16.359Z,33.35
2022-12-17T20:26:44.259Z,31.60
2022-12-17T20:29:10.764Z,30.80
2022-12-17T20:31:37.536Z,29.67
2022-12-17T20:34:05.780Z,24.45
2022-12-17T20:36:32.093Z,38.58
2022-12-17T20:38:58.454Z,34.92
2022-12-17T20:41:26.903Z,34.80
2022-12-17T20:43:53.685Z,29.63
2022-12-17T20:46:21.043Z,31.40
2022-12-17T20:48:47.835Z,30.58
2022-12-17T20:51:19.710Z,31.92
2022-12-17T20:53:47.209Z,30.58
2022-12-17T20:56:16.172Z,29.35
2022-12-17T20:58:43.317Z,30.30
2022-12-17T21:01:15.730Z,28.13
2022-12-17T21:03:42.973Z,28.23
2022-12-17T21:06:17.954Z,29.80
2022-12-17T21:08:49.695Z,27.90
2022-12-17T21:11:22.005Z,29.40
2022-12-17T21:13:48.537Z,28.90
2022-12-17T21:16:18.285Z,26.95
2022-12-17T21:18:44.833Z,29.73
2022-12-17T21:21:14.853Z,30.63
2022-12-17T21:23:41.217Z,28.98
2022-12-17T21:26:08.744Z,33.08
2022-12-17T21:28:38.202Z,31.90
2022-12-17T21:31:05.776Z,31.40
2022-12-17T21:33:33.394Z,31.38
2022-12-17T21:36:00.418Z,30.95
2022-12-17T21:38:27.688Z,31.08
2022-12-17T21:40:54.924Z,27.65
2022-12-17T21:43:21.735Z,28.95
2022-12-17T21:45:48.163Z,26.85
2022-12-17T21:48:15.375Z,28.95
2022-12-17T21:50:43.163Z,28.48
2022-12-17T21:53:10.791Z,28.95
2022-12-17T21:55:37.545Z,29.15
2022-12-17T21:58:06.335Z,30.15
2022-12-17T22:00:32.654Z,27.23
2022-12-17T22:02:59.183Z,28.20
2022-12-17T22:05:26.159Z,28.08
2022-12-17T22:07:52.550Z,28.98
2022-12-17T22:10:42.169Z,29.67
2022-12-17T22:13:24.268Z,27.17
2022-12-17T22:15:50.846Z,28.02
2022-12-17T22:18:17.384Z,28.00
2022-12-17T22:20:43.856Z,26.95
2022-12-17T22:23:10.223Z,26.70
2022-12-17T22:25:38.408Z,27.35
2022-12-17T22:28:05.068Z,27.67
2022-12-17T22:30:50.115Z,26.73
2022-12-17T22:33:38.500Z,26.40
2022-12-17T22:37:51.266Z,27.02
2022-12-17T22:41:34.082Z,26.88
2022-12-17T22:44:48.900Z,25.63
2022-12-17T22:44:53.346Z,25.90
2022-12-17T22:47:21.173Z,26.73
2022-12-17T22:49:47.527Z,27.42
2022-12-17T22:52:14.092Z,29.48
2022-12-17T22:54:42.938Z,26.02
2022-12-17T22:57:34.470Z,27.02
2022-12-17T22:59:56.266Z,27.90
2022-12-17T23:02:23.307Z,26.85
2022-12-17T23:04:49.863Z,26.02
2022-12-17T23:07:16.270Z,28.00
2022-12-17T23:09:44.421Z,28.85
2022-12-17T23:12:29.148Z,26.83
2022-12-17T23:14:55.464Z,26.45
2022-12-17T23:17:21.788Z,26.88
2022-12-17T23:19:48.241Z,26.27
2022-12-17T23:22:18.920Z,26.70
2022-12-17T23:24:48.472Z,26.77
2022-12-17T23:27:14.805Z,27.38
2022-12-17T23:29:41.144Z,25.13
2022-12-17T23:32:07.525Z,26.02
2022-12-17T23:34:33.829Z,25.85
2022-12-17T23:37:00.255Z,26.05
2022-12-17T23:39:26.882Z,25.80
2022-12-17T23:41:56.248Z,25.92
2022-12-17T23:44:22.669Z,25.15
2022-12-17T23:46:49.259Z,25.35
2022-12-17T23:49:15.686Z,26.45
2022-12-17T23:51:42.099Z,25.38
2022-12-17T23:54:08.718Z,24.48
2022-12-17T23:56:36.480Z,24.65
2022-12-17T23:59:03.261Z,23.33
